sensor_id;sensor_type;location;lat;lon;timestamp;P1;durP1;ratioP1;P2;durP2;ratioP2
12814;SDS011;6472;52.328;13.070;2023-09-12T00:01:26;17.08;;;14.18;;
12814;SDS011;6472;52.328;13.070;2023-09-12T00:03:54;15.82;;;14.13;;
12814;SDS011;6472;52.328;13.070;2023-09-12T00:06:22;15.15;;;13.10;;
12814;SDS011;6472;52.328;13.070;2023-09-12T00:08:52;15.25;;;13.65;;
12814;SDS011;6472;52.328;13.070;2023-09-12T00:11:20;17.02;;;13.50;;
12814;SDS011;6472;52.328;13.070;2023-09-12T00:13:53;17.40;;;12.60;;
12814;SDS011;6472;52.328;13.070;2023-09-12T00:16:21;15.82;;;13.57;;
12814;SDS011;6472;52.328;13.070;2023-09-12T00:18:49;14.23;;;12.70;;
12814;SDS011;6472;52.328;13.070;2023-09-12T00:21:17;14.07;;;12.63;;
12814;SDS011;6472;52.328;13.070;2023-09-12T00:23:45;14.00;;;12.57;;
12814;SDS011;6472;52.328;13.070;2023-09-12T00:26:14;14.52;;;13.00;;
12814;SDS011;6472;52.328;13.070;2023-09-12T00:28:42;15.23;;;12.73;;
12814;SDS011;6472;52.328;13.070;2023-09-12T00:31:10;19.77;;;13.63;;
12814;SDS011;6472;52.328;13.070;2023-09-12T00:33:38;14.23;;;12.25;;
12814;SDS011;6472;52.328;13.070;2023-09-12T00:36:06;18.35;;;12.93;;
12814;SDS011;6472;52.328;13.070;2023-09-12T00:38:34;17.83;;;13.63;;
12814;SDS011;6472;52.328;13.070;2023-09-12T00:41:02;15.40;;;12.70;;
12814;SDS011;6472;52.328;13.070;2023-09-12T00:43:32;15.98;;;13.18;;
12814;SDS011;6472;52.328;13.070;2023-09-12T00:46:00;15.73;;;12.77;;
12814;SDS011;6472;52.328;13.070;2023-09-12T00:48:28;15.43;;;12.55;;
12814;SDS011;6472;52.328;13.070;2023-09-12T00:50:58;13.87;;;12.43;;
12814;SDS011;6472;52.328;13.070;2023-09-12T00:53:27;16.13;;;13.95;;
12814;SDS011;6472;52.328;13.070;2023-09-12T00:55:56;15.90;;;14.20;;
12814;SDS011;6472;52.328;13.070;2023-09-12T00:58:25;14.83;;;12.40;;
12814;SDS011;6472;52.328;13.070;2023-09-12T01:00:56;16.05;;;13.02;;
12814;SDS011;6472;52.328;13.070;2023-09-12T01:03:25;16.17;;;13.07;;
12814;SDS011;6472;52.328;13.070;2023-09-12T01:05:54;14.55;;;12.02;;
12814;SDS011;6472;52.328;13.070;2023-09-12T01:08:23;15.75;;;12.80;;
12814;SDS011;6472;52.328;13.070;2023-09-12T01:10:51;14.70;;;13.03;;
12814;SDS011;6472;52.328;13.070;2023-09-12T01:13:21;13.27;;;11.90;;
12814;SDS011;6472;52.328;13.070;2023-09-12T01:15:50;15.70;;;12.25;;
12814;SDS011;6472;52.328;13.070;2023-09-12T01:18:19;14.73;;;13.13;;
12814;SDS011;6472;52.328;13.070;2023-09-12T01:20:51;19.23;;;13.93;;
12814;SDS011;6472;52.328;13.070;2023-09-12T01:23:40;14.30;;;12.73;;
12814;SDS011;6472;52.328;13.070;2023-09-12T01:26:19;17.13;;;13.23;;
12814;SDS011;6472;52.328;13.070;2023-09-12T01:28:58;16.50;;;13.83;;
12814;SDS011;6472;52.328;13.070;2023-09-12T01:31:26;14.00;;;11.87;;
12814;SDS011;6472;52.328;13.070;2023-09-12T01:33:56;14.37;;;12.80;;
12814;SDS011;6472;52.328;13.070;2023-09-12T01:36:24;15.33;;;13.73;;
12814;SDS011;6472;52.328;13.070;2023-09-12T01:38:52;15.80;;;13.03;;
12814;SDS011;6472;52.328;13.070;2023-09-12T01:41:20;14.73;;;12.83;;
12814;SDS011;6472;52.328;13.070;2023-09-12T01:43:48;15.90;;;13.43;;
12814;SDS011;6472;52.328;13.070;2023-09-12T01:46:19;15.50;;;12.87;;
12814;SDS011;6472;52.328;13.070;2023-09-12T01:48:48;14.77;;;13.00;;
12814;SDS011;6472;52.328;13.070;2023-09-12T01:51:19;15.07;;;13.43;;
12814;SDS011;6472;52.328;13.070;2023-09-12T01:53:47;16.43;;;14.30;;
12814;SDS011;6472;52.328;13.070;2023-09-12T01:56:17;14.37;;;12.83;;
12814;SDS011;6472;52.328;13.070;2023-09-12T01:58:46;14.07;;;12.53;;
12814;SDS011;6472;52.328;13.070;2023-09-12T02:01:14;13.83;;;12.43;;
12814;SDS011;6472;52.328;13.070;2023-09-12T02:03:43;15.47;;;13.87;;
12814;SDS011;6472;52.328;13.070;2023-09-12T02:06:11;14.63;;;13.13;;
12814;SDS011;6472;52.328;13.070;2023-09-12T02:08:39;16.77;;;13.47;;
12814;SDS011;6472;52.328;13.070;2023-09-12T02:11:08;14.85;;;13.30;;
12814;SDS011;6472;52.328;13.070;2023-09-12T02:13:36;14.10;;;12.60;;
12814;SDS011;6472;52.328;13.070;2023-09-12T02:16:04;13.83;;;12.37;;
12814;SDS011;6472;52.328;13.070;2023-09-12T02:18:32;14.83;;;12.97;;
12814;SDS011;6472;52.328;13.070;2023-09-12T02:21:01;15.63;;;14.03;;
12814;SDS011;6472;52.328;13.070;2023-09-12T02:23:30;16.10;;;14.33;;
12814;SDS011;6472;52.328;13.070;2023-09-12T02:25:58;15.77;;;14.10;;
12814;SDS011;6472;52.328;13.070;2023-09-12T02:28:26;15.43;;;13.83;;
12814;SDS011;6472;52.328;13.070;2023-09-12T02:30:54;15.70;;;14.07;;
12814;SDS011;6472;52.328;13.070;2023-09-12T02:33:22;15.60;;;13.97;;
12814;SDS011;6472;52.328;13.070;2023-09-12T02:35:50;15.40;;;13.43;;
12814;SDS011;6472;52.328;13.070;2023-09-12T02:38:19;17.30;;;13.30;;
12814;SDS011;6472;52.328;13.070;2023-09-12T02:40:47;14.13;;;12.47;;
12814;SDS011;6472;52.328;13.070;2023-09-12T02:43:15;16.27;;;13.67;;
12814;SDS011;6472;52.328;13.070;2023-09-12T02:45:43;16.67;;;13.97;;
12814;SDS011;6472;52.328;13.070;2023-09-12T02:48:11;14.80;;;13.30;;
12814;SDS011;6472;52.328;13.070;2023-09-12T02:50:40;15.93;;;13.50;;
12814;SDS011;6472;52.328;13.070;2023-09-12T02:53:08;17.27;;;14.20;;
12814;SDS011;6472;52.328;13.070;2023-09-12T02:55:42;17.70;;;15.13;;
12814;SDS011;6472;52.328;13.070;2023-09-12T02:58:10;15.10;;;13.50;;
12814;SDS011;6472;52.328;13.070;2023-09-12T03:00:38;18.10;;;14.80;;
12814;SDS011;6472;52.328;13.070;2023-09-12T03:03:07;15.67;;;13.90;;
12814;SDS011;6472;52.328;13.070;2023-09-12T03:05:36;15.20;;;13.60;;
12814;SDS011;6472;52.328;13.070;2023-09-12T03:08:04;16.03;;;14.33;;
12814;SDS011;6472;52.328;13.070;2023-09-12T03:10:32;16.43;;;14.60;;
12814;SDS011;6472;52.328;13.070;2023-09-12T03:13:01;16.10;;;13.50;;
12814;SDS011;6472;52.328;13.070;2023-09-12T03:15:29;17.23;;;14.87;;
12814;SDS011;6472;52.328;13.070;2023-09-12T03:17:57;13.70;;;12.10;;
12814;SDS011;6472;52.328;13.070;2023-09-12T03:20:25;15.80;;;13.33;;
12814;SDS011;6472;52.328;13.070;2023-09-12T03:22:53;16.00;;;13.43;;
12814;SDS011;6472;52.328;13.070;2023-09-12T03:25:21;14.20;;;12.70;;
12814;SDS011;6472;52.328;13.070;2023-09-12T03:27:49;14.53;;;12.60;;
12814;SDS011;6472;52.328;13.070;2023-09-12T03:30:19;15.60;;;13.73;;
12814;SDS011;6472;52.328;13.070;2023-09-12T03:32:47;14.67;;;13.10;;
12814;SDS011;6472;52.328;13.070;2023-09-12T03:35:16;14.43;;;12.90;;
12814;SDS011;6472;52.328;13.070;2023-09-12T03:37:44;19.43;;;13.90;;
12814;SDS011;6472;52.328;13.070;2023-09-12T03:40:12;16.67;;;14.33;;
12814;SDS011;6472;52.328;13.070;2023-09-12T03:42:40;15.77;;;14.17;;
12814;SDS011;6472;52.328;13.070;2023-09-12T03:45:08;17.43;;;13.40;;
12814;SDS011;6472;52.328;13.070;2023-09-12T03:47:38;14.07;;;12.40;;
12814;SDS011;6472;52.328;13.070;2023-09-12T03:50:07;15.13;;;13.57;;
12814;SDS011;6472;52.328;13.070;2023-09-12T03:52:39;17.00;;;13.17;;
12814;SDS011;6472;52.328;13.070;2023-09-12T03:55:08;14.27;;;12.80;;
12814;SDS011;6472;52.328;13.070;2023-09-12T03:57:36;14.50;;;12.93;;
12814;SDS011;6472;52.328;13.070;2023-09-12T04:00:05;14.73;;;12.43;;
12814;SDS011;6472;52.328;13.070;2023-09-12T04:02:35;14.07;;;12.17;;
12814;SDS011;6472;52.328;13.070;2023-09-12T04:05:05;17.00;;;13.63;;
12814;SDS011;6472;52.328;13.070;2023-09-12T04:07:34;14.97;;;13.37;;
12814;SDS011;6472;52.328;13.070;2023-09-12T04:10:02;15.20;;;13.43;;
12814;SDS011;6472;52.328;13.070;2023-09-12T04:12:30;15.30;;;13.70;;
12814;SDS011;6472;52.328;13.070;2023-09-12T04:14:58;16.33;;;14.47;;
12814;SDS011;6472;52.328;13.070;2023-09-12T04:17:26;15.47;;;13.10;;
12814;SDS011;6472;52.328;13.070;2023-09-12T04:19:54;16.33;;;13.53;;
12814;SDS011;6472;52.328;13.070;2023-09-12T04:22:24;13.67;;;12.27;;
12814;SDS011;6472;52.328;13.070;2023-09-12T04:24:52;19.07;;;13.47;;
12814;SDS011;6472;52.328;13.070;2023-09-12T04:27:19;14.40;;;12.90;;
12814;SDS011;6472;52.328;13.070;2023-09-12T04:29:47;17.10;;;12.70;;
12814;SDS011;6472;52.328;13.070;2023-09-12T04:32:15;16.37;;;12.90;;
12814;SDS011;6472;52.328;13.070;2023-09-12T04:34:49;16.53;;;13.50;;
12814;SDS011;6472;52.328;13.070;2023-09-12T04:37:17;17.03;;;13.63;;
12814;SDS011;6472;52.328;13.070;2023-09-12T04:39:48;14.50;;;13.10;;
12814;SDS011;6472;52.328;13.070;2023-09-12T04:42:16;19.80;;;14.93;;
12814;SDS011;6472;52.328;13.070;2023-09-12T04:44:44;16.07;;;14.03;;
12814;SDS011;6472;52.328;13.070;2023-09-12T04:47:12;18.37;;;14.57;;
12814;SDS011;6472;52.328;13.070;2023-09-12T04:49:40;16.53;;;13.53;;
12814;SDS011;6472;52.328;13.070;2023-09-12T04:52:09;15.23;;;13.60;;
12814;SDS011;6472;52.328;13.070;2023-09-12T04:54:37;14.93;;;13.27;;
12814;SDS011;6472;52.328;13.070;2023-09-12T04:57:07;17.33;;;14.33;;
12814;SDS011;6472;52.328;13.070;2023-09-12T04:59:35;18.07;;;13.93;;
12814;SDS011;6472;52.328;13.070;2023-09-12T05:02:03;20.43;;;13.93;;
12814;SDS011;6472;52.328;13.070;2023-09-12T05:04:31;14.93;;;13.33;;
12814;SDS011;6472;52.328;13.070;2023-09-12T05:06:59;16.20;;;13.63;;
12814;SDS011;6472;52.328;13.070;2023-09-12T05:09:27;19.47;;;14.70;;
12814;SDS011;6472;52.328;13.070;2023-09-12T05:11:55;16.50;;;14.40;;
12814;SDS011;6472;52.328;13.070;2023-09-12T05:14:25;17.40;;;14.53;;
12814;SDS011;6472;52.328;13.070;2023-09-12T05:16:53;18.80;;;14.87;;
12814;SDS011;6472;52.328;13.070;2023-09-12T05:19:21;15.10;;;13.47;;
12814;SDS011;6472;52.328;13.070;2023-09-12T05:21:49;16.00;;;14.30;;
12814;SDS011;6472;52.328;13.070;2023-09-12T05:24:17;14.50;;;12.97;;
12814;SDS011;6472;52.328;13.070;2023-09-12T05:26:45;18.33;;;14.27;;
12814;SDS011;6472;52.328;13.070;2023-09-12T05:29:14;16.00;;;13.70;;
12814;SDS011;6472;52.328;13.070;2023-09-12T05:31:44;16.93;;;14.67;;
12814;SDS011;6472;52.328;13.070;2023-09-12T05:34:12;14.90;;;13.33;;
12814;SDS011;6472;52.328;13.070;2023-09-12T05:36:40;14.80;;;13.30;;
12814;SDS011;6472;52.328;13.070;2023-09-12T05:39:08;19.08;;;14.45;;
12814;SDS011;6472;52.328;13.070;2023-09-12T05:41:36;14.87;;;13.30;;
12814;SDS011;6472;52.328;13.070;2023-09-12T05:44:04;17.90;;;14.60;;
12814;SDS011;6472;52.328;13.070;2023-09-12T05:46:32;14.93;;;13.43;;
12814;SDS011;6472;52.328;13.070;2023-09-12T05:49:02;15.57;;;13.60;;
12814;SDS011;6472;52.328;13.070;2023-09-12T05:51:31;17.10;;;12.57;;
12814;SDS011;6472;52.328;13.070;2023-09-12T05:53:59;14.27;;;12.83;;
12814;SDS011;6472;52.328;13.070;2023-09-12T05:56:27;15.40;;;12.82;;
12814;SDS011;6472;52.328;13.070;2023-09-12T05:58:55;18.30;;;13.05;;
12814;SDS011;6472;52.328;13.070;2023-09-12T06:01:23;17.25;;;13.80;;
12814;SDS011;6472;52.328;13.070;2023-09-12T06:03:51;18.48;;;14.68;;
12814;SDS011;6472;52.328;13.070;2023-09-12T06:06:21;16.85;;;13.13;;
12814;SDS011;6472;52.328;13.070;2023-09-12T06:08:50;15.93;;;12.82;;
12814;SDS011;6472;52.328;13.070;2023-09-12T06:11:19;18.52;;;13.40;;
12814;SDS011;6472;52.328;13.070;2023-09-12T06:13:47;19.85;;;13.27;;
12814;SDS011;6472;52.328;13.070;2023-09-12T06:16:15;18.23;;;12.98;;
12814;SDS011;6472;52.328;13.070;2023-09-12T06:18:43;16.15;;;12.55;;
12814;SDS011;6472;52.328;13.070;2023-09-12T06:21:11;13.98;;;12.48;;
12814;SDS011;6472;52.328;13.070;2023-09-12T06:23:41;18.65;;;13.00;;
12814;SDS011;6472;52.328;13.070;2023-09-12T06:26:09;12.73;;;11.38;;
12814;SDS011;6472;52.328;13.070;2023-09-12T06:28:37;16.23;;;12.77;;
12814;SDS011;6472;52.328;13.070;2023-09-12T06:31:07;19.85;;;13.30;;
12814;SDS011;6472;52.328;13.070;2023-09-12T06:33:37;17.35;;;11.88;;
12814;SDS011;6472;52.328;13.070;2023-09-12T06:36:06;27.13;;;12.88;;
12814;SDS011;6472;52.328;13.070;2023-09-12T06:38:34;22.95;;;12.55;;
12814;SDS011;6472;52.328;13.070;2023-09-12T06:41:03;17.70;;;12.18;;
12814;SDS011;6472;52.328;13.070;2023-09-12T06:43:31;21.15;;;13.30;;
12814;SDS011;6472;52.328;13.070;2023-09-12T06:45:59;20.17;;;11.85;;
12814;SDS011;6472;52.328;13.070;2023-09-12T06:48:27;18.15;;;11.80;;
12814;SDS011;6472;52.328;13.070;2023-09-12T06:50:55;19.95;;;12.77;;
12814;SDS011;6472;52.328;13.070;2023-09-12T06:53:23;20.77;;;11.80;;
12814;SDS011;6472;52.328;13.070;2023-09-12T06:55:51;14.73;;;11.15;;
12814;SDS011;6472;52.328;13.070;2023-09-12T06:58:21;17.13;;;11.90;;
12814;SDS011;6472;52.328;13.070;2023-09-12T07:00:49;17.08;;;12.02;;
12814;SDS011;6472;52.328;13.070;2023-09-12T07:03:17;14.55;;;11.60;;
12814;SDS011;6472;52.328;13.070;2023-09-12T07:05:46;14.93;;;10.93;;
12814;SDS011;6472;52.328;13.070;2023-09-12T07:08:14;15.35;;;9.85;;
12814;SDS011;6472;52.328;13.070;2023-09-12T07:10:43;11.05;;;9.23;;
12814;SDS011;6472;52.328;13.070;2023-09-12T07:13:13;12.18;;;10.75;;
12814;SDS011;6472;52.328;13.070;2023-09-12T07:15:42;21.33;;;10.70;;
12814;SDS011;6472;52.328;13.070;2023-09-12T07:18:10;13.25;;;8.25;;
12814;SDS011;6472;52.328;13.070;2023-09-12T07:20:38;11.45;;;8.85;;
12814;SDS011;6472;52.328;13.070;2023-09-12T07:23:06;13.20;;;9.48;;
12814;SDS011;6472;52.328;13.070;2023-09-12T07:25:38;14.75;;;9.02;;
12814;SDS011;6472;52.328;13.070;2023-09-12T07:28:07;14.27;;;8.13;;
12814;SDS011;6472;52.328;13.070;2023-09-12T07:41:05;12.93;;;8.57;;
12814;SDS011;6472;52.328;13.070;2023-09-12T07:43:32;15.38;;;9.10;;
12814;SDS011;6472;52.328;13.070;2023-09-12T07:46:01;13.32;;;8.73;;
12814;SDS011;6472;52.328;13.070;2023-09-12T07:48:29;8.82;;;7.15;;
12814;SDS011;6472;52.328;13.070;2023-09-12T07:50:57;12.43;;;7.32;;
12814;SDS011;6472;52.328;13.070;2023-09-12T07:53:25;11.07;;;7.43;;
12814;SDS011;6472;52.328;13.070;2023-09-12T07:55:54;10.43;;;7.47;;
12814;SDS011;6472;52.328;13.070;2023-09-12T07:58:26;9.27;;;6.80;;
12814;SDS011;6472;52.328;13.070;2023-09-12T08:00:54;11.02;;;7.30;;
12814;SDS011;6472;52.328;13.070;2023-09-12T08:03:22;14.38;;;7.78;;
12814;SDS011;6472;52.328;13.070;2023-09-12T08:05:55;15.10;;;7.80;;
12814;SDS011;6472;52.328;13.070;2023-09-12T08:08:23;8.57;;;6.82;;
12814;SDS011;6472;52.328;13.070;2023-09-12T08:10:51;11.52;;;7.03;;
12814;SDS011;6472;52.328;13.070;2023-09-12T08:13:21;8.98;;;6.47;;
12814;SDS011;6472;52.328;13.070;2023-09-12T08:15:49;12.65;;;7.47;;
12814;SDS011;6472;52.328;13.070;2023-09-12T08:18:17;11.82;;;7.50;;
12814;SDS011;6472;52.328;13.070;2023-09-12T08:20:45;14.60;;;7.72;;
12814;SDS011;6472;52.328;13.070;2023-09-12T08:23:13;13.48;;;7.07;;
12814;SDS011;6472;52.328;13.070;2023-09-12T08:25:41;12.15;;;6.75;;
12814;SDS011;6472;52.328;13.070;2023-09-12T08:28:09;11.18;;;7.18;;
12814;SDS011;6472;52.328;13.070;2023-09-12T08:30:38;11.57;;;7.45;;
12814;SDS011;6472;52.328;13.070;2023-09-12T08:33:06;9.07;;;6.30;;
12814;SDS011;6472;52.328;13.070;2023-09-12T08:35:35;10.68;;;7.07;;
12814;SDS011;6472;52.328;13.070;2023-09-12T08:38:03;11.57;;;6.70;;
12814;SDS011;6472;52.328;13.070;2023-09-12T08:40:32;14.75;;;6.82;;
12814;SDS011;6472;52.328;13.070;2023-09-12T08:43:01;10.23;;;6.72;;
12814;SDS011;6472;52.328;13.070;2023-09-12T08:45:30;10.32;;;6.85;;
12814;SDS011;6472;52.328;13.070;2023-09-12T08:48:00;12.20;;;7.25;;
12814;SDS011;6472;52.328;13.070;2023-09-12T08:50:30;11.90;;;6.93;;
12814;SDS011;6472;52.328;13.070;2023-09-12T08:53:00;10.75;;;7.53;;
12814;SDS011;6472;52.328;13.070;2023-09-12T08:55:34;8.55;;;6.22;;
12814;SDS011;6472;52.328;13.070;2023-09-12T08:58:03;13.68;;;7.97;;
12814;SDS011;6472;52.328;13.070;2023-09-12T09:00:33;10.98;;;7.65;;
12814;SDS011;6472;52.328;13.070;2023-09-12T09:03:04;13.32;;;8.23;;
12814;SDS011;6472;52.328;13.070;2023-09-12T09:05:32;14.30;;;8.38;;
12814;SDS011;6472;52.328;13.070;2023-09-12T09:08:02;15.65;;;8.80;;
12814;SDS011;6472;52.328;13.070;2023-09-12T09:10:31;21.58;;;9.60;;
12814;SDS011;6472;52.328;13.070;2023-09-12T09:13:15;24.50;;;10.10;;
12814;SDS011;6472;52.328;13.070;2023-09-12T09:15:44;13.57;;;8.65;;
12814;SDS011;6472;52.328;13.070;2023-09-12T09:18:14;15.15;;;9.77;;
12814;SDS011;6472;52.328;13.070;2023-09-12T09:20:42;12.02;;;9.32;;
12814;SDS011;6472;52.328;13.070;2023-09-12T09:23:16;17.52;;;9.02;;
12814;SDS011;6472;52.328;13.070;2023-09-12T09:25:45;16.73;;;9.35;;
12814;SDS011;6472;52.328;13.070;2023-09-12T09:28:20;13.40;;;9.07;;
12814;SDS011;6472;52.328;13.070;2023-09-12T09:30:50;17.85;;;8.40;;
12814;SDS011;6472;52.328;13.070;2023-09-12T09:33:23;15.48;;;9.13;;
12814;SDS011;6472;52.328;13.070;2023-09-12T09:35:51;14.68;;;9.07;;
12814;SDS011;6472;52.328;13.070;2023-09-12T09:38:30;15.93;;;8.90;;
12814;SDS011;6472;52.328;13.070;2023-09-12T09:40:59;16.35;;;8.55;;
12814;SDS011;6472;52.328;13.070;2023-09-12T09:43:27;13.02;;;9.27;;
12814;SDS011;6472;52.328;13.070;2023-09-12T09:45:58;15.07;;;8.40;;
12814;SDS011;6472;52.328;13.070;2023-09-12T09:48:28;10.63;;;8.13;;
12814;SDS011;6472;52.328;13.070;2023-09-12T09:50:59;16.08;;;9.48;;
12814;SDS011;6472;52.328;13.070;2023-09-12T09:53:28;16.85;;;8.73;;
12814;SDS011;6472;52.328;13.070;2023-09-12T09:56:08;14.45;;;8.48;;
12814;SDS011;6472;52.328;13.070;2023-09-12T09:58:41;15.38;;;8.88;;
12814;SDS011;6472;52.328;13.070;2023-09-12T10:01:14;15.65;;;8.65;;
12814;SDS011;6472;52.328;13.070;2023-09-12T10:03:46;10.93;;;8.25;;
12814;SDS011;6472;52.328;13.070;2023-09-12T10:06:15;12.98;;;8.13;;
12814;SDS011;6472;52.328;13.070;2023-09-12T10:08:46;14.55;;;8.30;;
12814;SDS011;6472;52.328;13.070;2023-09-12T10:11:17;10.07;;;7.45;;
12814;SDS011;6472;52.328;13.070;2023-09-12T10:13:49;15.88;;;8.38;;
12814;SDS011;6472;52.328;13.070;2023-09-12T10:16:20;12.00;;;8.30;;
12814;SDS011;6472;52.328;13.070;2023-09-12T10:18:57;11.82;;;8.15;;
12814;SDS011;6472;52.328;13.070;2023-09-12T10:21:29;12.55;;;7.78;;
12814;SDS011;6472;52.328;13.070;2023-09-12T10:23:58;10.52;;;7.50;;
12814;SDS011;6472;52.328;13.070;2023-09-12T10:26:27;12.68;;;6.80;;
12814;SDS011;6472;52.328;13.070;2023-09-12T10:28:56;12.95;;;6.90;;
12814;SDS011;6472;52.328;13.070;2023-09-12T10:31:26;11.13;;;7.80;;
12814;SDS011;6472;52.328;13.070;2023-09-12T10:33:57;10.60;;;6.30;;
12814;SDS011;6472;52.328;13.070;2023-09-12T10:36:26;11.73;;;5.15;;
12814;SDS011;6472;52.328;13.070;2023-09-12T10:38:55;11.43;;;5.43;;
12814;SDS011;6472;52.328;13.070;2023-09-12T10:41:26;8.30;;;5.10;;
12814;SDS011;6472;52.328;13.070;2023-09-12T10:43:55;7.85;;;5.00;;
12814;SDS011;6472;52.328;13.070;2023-09-12T10:46:26;8.55;;;4.68;;
12814;SDS011;6472;52.328;13.070;2023-09-12T10:48:57;9.10;;;5.43;;
12814;SDS011;6472;52.328;13.070;2023-09-12T10:51:26;5.68;;;4.88;;
12814;SDS011;6472;52.328;13.070;2023-09-12T10:53:54;5.53;;;4.97;;
12814;SDS011;6472;52.328;13.070;2023-09-12T10:56:22;7.78;;;5.28;;
12814;SDS011;6472;52.328;13.070;2023-09-12T10:59:11;7.90;;;5.50;;
12814;SDS011;6472;52.328;13.070;2023-09-12T11:01:41;7.72;;;5.50;;
12814;SDS011;6472;52.328;13.070;2023-09-12T11:04:32;7.00;;;5.68;;
12814;SDS011;6472;52.328;13.070;2023-09-12T11:07:01;6.25;;;5.68;;
12814;SDS011;6472;52.328;13.070;2023-09-12T11:09:29;7.78;;;4.88;;
12814;SDS011;6472;52.328;13.070;2023-09-12T11:11:58;7.97;;;5.68;;
12814;SDS011;6472;52.328;13.070;2023-09-12T11:14:29;6.97;;;5.70;;
12814;SDS011;6472;52.328;13.070;2023-09-12T11:19:51;8.23;;;5.95;;
12814;SDS011;6472;52.328;13.070;2023-09-12T11:22:24;10.75;;;5.90;;
12814;SDS011;6472;52.328;13.070;2023-09-12T11:24:53;10.05;;;5.53;;
12814;SDS011;6472;52.328;13.070;2023-09-12T11:27:23;6.40;;;5.78;;
12814;SDS011;6472;52.328;13.070;2023-09-12T11:29:53;7.97;;;5.93;;
12814;SDS011;6472;52.328;13.070;2023-09-12T11:32:30;6.70;;;5.82;;
12814;SDS011;6472;52.328;13.070;2023-09-12T11:35:01;7.13;;;5.63;;
12814;SDS011;6472;52.328;13.070;2023-09-12T11:37:32;8.52;;;5.53;;
12814;SDS011;6472;52.328;13.070;2023-09-12T11:40:14;7.93;;;5.55;;
12814;SDS011;6472;52.328;13.070;2023-09-12T11:42:44;12.70;;;5.88;;
12814;SDS011;6472;52.328;13.070;2023-09-12T11:45:13;7.13;;;4.60;;
12814;SDS011;6472;52.328;13.070;2023-09-12T11:47:41;8.05;;;6.20;;
12814;SDS011;6472;52.328;13.070;2023-09-12T11:53:04;10.05;;;6.45;;
12814;SDS011;6472;52.328;13.070;2023-09-12T11:55:34;9.88;;;5.53;;
12814;SDS011;6472;52.328;13.070;2023-09-12T11:58:03;5.88;;;5.07;;
12814;SDS011;6472;52.328;13.070;2023-09-12T12:00:32;5.63;;;5.13;;
12814;SDS011;6472;52.328;13.070;2023-09-12T12:03:01;9.13;;;6.13;;
12814;SDS011;6472;52.328;13.070;2023-09-12T12:05:30;6.63;;;5.22;;
12814;SDS011;6472;52.328;13.070;2023-09-12T12:07:59;7.03;;;5.22;;
12814;SDS011;6472;52.328;13.070;2023-09-12T12:10:50;8.55;;;5.28;;
12814;SDS011;6472;52.328;13.070;2023-09-12T12:13:19;9.93;;;5.50;;
12814;SDS011;6472;52.328;13.070;2023-09-12T12:15:50;7.80;;;4.85;;
12814;SDS011;6472;52.328;13.070;2023-09-12T12:18:18;9.65;;;5.72;;
12814;SDS011;6472;52.328;13.070;2023-09-12T12:20:46;15.02;;;5.78;;
12814;SDS011;6472;52.328;13.070;2023-09-12T12:23:15;7.93;;;5.55;;
12814;SDS011;6472;52.328;13.070;2023-09-12T12:25:43;6.40;;;4.88;;
12814;SDS011;6472;52.328;13.070;2023-09-12T12:28:13;10.48;;;5.60;;
12814;SDS011;6472;52.328;13.070;2023-09-12T12:30:43;6.60;;;5.53;;
12814;SDS011;6472;52.328;13.070;2023-09-12T12:33:13;7.43;;;4.90;;
12814;SDS011;6472;52.328;13.070;2023-09-12T12:36:01;5.43;;;4.95;;
12814;SDS011;6472;52.328;13.070;2023-09-12T12:38:31;8.18;;;5.05;;
12814;SDS011;6472;52.328;13.070;2023-09-12T12:41:03;6.03;;;5.00;;
12814;SDS011;6472;52.328;13.070;2023-09-12T12:43:33;6.50;;;5.88;;
12814;SDS011;6472;52.328;13.070;2023-09-12T12:46:01;9.07;;;5.80;;
12814;SDS011;6472;52.328;13.070;2023-09-12T12:48:30;10.48;;;5.75;;
12814;SDS011;6472;52.328;13.070;2023-09-12T12:50:59;7.32;;;5.43;;
12814;SDS011;6472;52.328;13.070;2023-09-12T12:53:43;8.18;;;5.28;;
12814;SDS011;6472;52.328;13.070;2023-09-12T12:56:19;9.90;;;6.07;;
12814;SDS011;6472;52.328;13.070;2023-09-12T12:58:50;5.90;;;5.20;;
12814;SDS011;6472;52.328;13.070;2023-09-12T13:01:20;8.80;;;5.10;;
12814;SDS011;6472;52.328;13.070;2023-09-12T13:03:48;5.72;;;5.10;;
12814;SDS011;6472;52.328;13.070;2023-09-12T13:06:17;9.60;;;5.75;;
12814;SDS011;6472;52.328;13.070;2023-09-12T13:08:46;9.25;;;6.10;;
12814;SDS011;6472;52.328;13.070;2023-09-12T13:11:15;9.43;;;5.28;;
12814;SDS011;6472;52.328;13.070;2023-09-12T13:13:45;10.02;;;6.05;;
12814;SDS011;6472;52.328;13.070;2023-09-12T13:16:16;9.48;;;5.85;;
12814;SDS011;6472;52.328;13.070;2023-09-12T13:18:54;7.07;;;5.63;;
12814;SDS011;6472;52.328;13.070;2023-09-12T13:21:31;11.90;;;5.97;;
12814;SDS011;6472;52.328;13.070;2023-09-12T13:23:59;11.48;;;5.78;;
12814;SDS011;6472;52.328;13.070;2023-09-12T13:26:28;13.95;;;5.63;;
12814;SDS011;6472;52.328;13.070;2023-09-12T13:28:57;11.70;;;5.75;;
12814;SDS011;6472;52.328;13.070;2023-09-12T13:31:26;9.80;;;5.03;;
12814;SDS011;6472;52.328;13.070;2023-09-12T13:33:54;8.65;;;5.97;;
12814;SDS011;6472;52.328;13.070;2023-09-12T13:36:23;11.85;;;5.60;;
12814;SDS011;6472;52.328;13.070;2023-09-12T13:38:51;13.43;;;6.00;;
12814;SDS011;6472;52.328;13.070;2023-09-12T13:41:19;7.75;;;5.30;;
12814;SDS011;6472;52.328;13.070;2023-09-12T13:43:48;13.77;;;5.68;;
12814;SDS011;6472;52.328;13.070;2023-09-12T13:46:16;9.30;;;5.38;;
12814;SDS011;6472;52.328;13.070;2023-09-12T13:48:46;9.40;;;5.35;;
12814;SDS011;6472;52.328;13.070;2023-09-12T13:51:15;7.05;;;4.70;;
12814;SDS011;6472;52.328;13.070;2023-09-12T13:53:43;12.23;;;5.35;;
12814;SDS011;6472;52.328;13.070;2023-09-12T13:56:12;10.55;;;4.82;;
12814;SDS011;6472;52.328;13.070;2023-09-12T13:58:40;10.65;;;6.32;;
12814;SDS011;6472;52.328;13.070;2023-09-12T14:01:11;11.80;;;5.72;;
12814;SDS011;6472;52.328;13.070;2023-09-12T14:03:54;5.50;;;4.78;;
12814;SDS011;6472;52.328;13.070;2023-09-12T14:06:23;9.00;;;4.70;;
12814;SDS011;6472;52.328;13.070;2023-09-12T14:08:52;7.63;;;5.97;;
12814;SDS011;6472;52.328;13.070;2023-09-12T14:11:21;7.55;;;5.13;;
12814;SDS011;6472;52.328;13.070;2023-09-12T14:13:59;11.27;;;5.40;;
12814;SDS011;6472;52.328;13.070;2023-09-12T14:16:41;9.15;;;5.50;;
12814;SDS011;6472;52.328;13.070;2023-09-12T14:19:14;9.10;;;5.60;;
12814;SDS011;6472;52.328;13.070;2023-09-12T14:21:43;8.38;;;5.10;;
12814;SDS011;6472;52.328;13.070;2023-09-12T14:24:13;9.82;;;6.13;;
12814;SDS011;6472;52.328;13.070;2023-09-12T14:26:41;8.82;;;4.75;;
12814;SDS011;6472;52.328;13.070;2023-09-12T14:29:11;7.38;;;3.85;;
12814;SDS011;6472;52.328;13.070;2023-09-12T14:31:40;5.75;;;3.42;;
12814;SDS011;6472;52.328;13.070;2023-09-12T14:34:19;5.60;;;3.28;;
12814;SDS011;6472;52.328;13.070;2023-09-12T14:36:47;4.53;;;3.50;;
12814;SDS011;6472;52.328;13.070;2023-09-12T14:39:16;3.75;;;3.20;;
12814;SDS011;6472;52.328;13.070;2023-09-12T14:41:45;4.45;;;3.50;;
12814;SDS011;6472;52.328;13.070;2023-09-12T14:44:17;3.30;;;2.83;;
12814;SDS011;6472;52.328;13.070;2023-09-12T14:46:46;6.90;;;3.60;;
12814;SDS011;6472;52.328;13.070;2023-09-12T14:49:14;3.10;;;2.88;;
12814;SDS011;6472;52.328;13.070;2023-09-12T14:51:44;7.55;;;3.35;;
12814;SDS011;6472;52.328;13.070;2023-09-12T14:54:12;7.53;;;3.10;;
12814;SDS011;6472;52.328;13.070;2023-09-12T14:56:40;5.15;;;3.40;;
12814;SDS011;6472;52.328;13.070;2023-09-12T14:59:08;4.50;;;2.92;;
12814;SDS011;6472;52.328;13.070;2023-09-12T15:01:37;3.40;;;3.15;;